Carlsbad, NM (88220)

11:35 AM MDT on June 26, 2017 (GMT -0600)
2.1 NNW Downtown Carlsbad, NM | | Change Station

Elev 3158 ft 32.43 °N, 104.25 °W | Updated 9 seconds ago

Mostly Cloudy
Mostly Cloudy
76.3 °F
Feels Like 78 °F
N
2.0
Wind Variable Wind from ENE
Gusts 4.0 mph

Today
High -- | Low -- °F
--% Chance of Precip.
Yesterday
High -- | Low -- °F
Precip. -- in
Pressure 30.08 in
Visibility 10.0 miles
Clouds Few 1900 ft
Overcast 4200 ft
Heat Index 78 °F
Dew Point 64 °F
Humidity 67%
Rainfall 0.06 in
Snow Depth Not available.
5:51 AM 8:08 PM
Waxing Crescent, 10% visible
METAR KCNM 261653Z AUTO 02006KT 10SM FEW019 OVC042 23/19 A3023 RMK AO2 SLP185 T02280189
Pressure 30.08 in
Visibility 10.0 miles
Clouds Few 1900 ft
Overcast 4200 ft
Heat Index 78 °F
Dew Point 64 °F
Humidity 67%
Rainfall 0.06 in
Snow Depth Not available.
5:51 AM 8:08 PM
Waxing Crescent, 10% visible
METAR KCNM 261653Z AUTO 02006KT 10SM FEW019 OVC042 23/19 A3023 RMK AO2 SLP185 T02280189

Get Severe Weather Alerts

Thanks for signing up!

Be on the lookout for a verification email in your inbox.

You'll start receiving the daily forecast at 6 AM.

×

10-Day Weather Forecast

Almanac

Astronomy

Jun. 26, 2017 Rise Set
Actual Time
Civil Twilight
Nautical Twilight
Astronomical Twilight
Moon
Length of Visible Light
Length of Day
Tomorrow will be .
, % of the Moon is Illuminated

Today's Extremes

State Highs State Lows

Community

WunderPhotos

Category 6

Welcome to Category 6. This is the collective home for Weather Underground's featured writeups by Dr. Jeff Masters (right), Bob Henson (left), Chris Burt, and other regular contributors.

Nearby

Air Quality

  Air Quality AQ Index Pollutant
Not available.

Snow Depth

Station Depth Elevation

Earthquake Activity

City Distance Mag. Time & Date
Minimum magnitude displayed is 2.5.

Coastal Water Temperatures

Place Temperature

Stations

Nearby Weather Stations

Station Location Temp. Windchill Dew Point Humidity Wind Precip. Elev Updated Type
                   

Watches & Warnings

There are currently no watches in effect.